createdAt,value
2019-06-27T00:03:43.589Z,101116.30
2019-06-27T00:09:04.374Z,101117.75
2019-06-27T00:14:23.461Z,101121.55
2019-06-27T00:19:42.588Z,101128.72
2019-06-27T00:25:01.808Z,101126.98
2019-06-27T00:30:21.070Z,101137.08
2019-06-27T00:35:40.234Z,101137.27
2019-06-27T00:40:59.397Z,101128.36
2019-06-27T00:46:18.549Z,101137.80
2019-06-27T00:51:37.734Z,101133.16
2019-06-27T00:57:12.569Z,101143.21
2019-06-27T01:02:17.787Z,101138.57
2019-06-27T01:07:36.912Z,101137.48
2019-06-27T01:12:56.066Z,101138.47
2019-06-27T01:18:15.598Z,101146.05
2019-06-27T01:23:34.813Z,101144.69
2019-06-27T01:28:53.973Z,101146.76
2019-06-27T01:34:13.144Z,101147.86
2019-06-27T01:39:32.315Z,101136.81
2019-06-27T01:44:53.130Z,101133.30
2019-06-27T01:50:12.348Z,101133.30
2019-06-27T01:55:31.534Z,101133.66
2019-06-27T02:00:50.767Z,101135.36
2019-06-27T02:06:10.009Z,101133.58
2019-06-27T02:11:29.162Z,101145.52
2019-06-27T02:16:48.345Z,101141.12
2019-06-27T02:22:07.508Z,101143.52
2019-06-27T02:27:26.604Z,101153.16
2019-06-27T02:32:45.799Z,101153.78
2019-06-27T02:38:05.096Z,101167.19
2019-06-27T02:43:24.313Z,101168.19
2019-06-27T02:48:43.497Z,101173.91
2019-06-27T02:54:02.662Z,101168.16
2019-06-27T02:59:21.858Z,101169.94
2019-06-27T03:04:40.998Z,101178.94
2019-06-27T03:10:00.173Z,101176.70
2019-06-27T03:15:19.403Z,101177.56
2019-06-27T03:20:38.934Z,101177.76
2019-06-27T03:25:58.125Z,101177.52
2019-06-27T03:31:17.384Z,101182.73
2019-06-27T03:36:36.845Z,101181.93
2019-06-27T03:41:56.021Z,101191.99
2019-06-27T03:47:15.158Z,101181.27
2019-06-27T03:52:34.705Z,101189.77
2019-06-27T03:57:53.793Z,101187.34
2019-06-27T04:03:12.953Z,101189.79
2019-06-27T04:08:32.132Z,101195.16
2019-06-27T04:13:51.332Z,101187.01
2019-06-27T04:19:10.564Z,101191.36
2019-06-27T04:24:29.797Z,101189.77
2019-06-27T04:29:48.961Z,101195.16
2019-06-27T04:35:08.181Z,101196.44
2019-06-27T04:40:27.349Z,101199.20
2019-06-27T04:45:46.499Z,101191.89
2019-06-27T04:51:05.655Z,101209.51
2019-06-27T04:56:24.984Z,101199.06
2019-06-27T05:01:44.132Z,101206.91
2019-06-27T05:07:03.234Z,101204.58
2019-06-27T05:12:22.379Z,101209.30
2019-06-27T05:17:41.463Z,101201.88
2019-06-27T05:23:00.625Z,101204.88
2019-06-27T05:28:19.800Z,101206.70
2019-06-27T05:33:38.946Z,101204.77
2019-06-27T05:38:58.102Z,101213.13
2019-06-27T05:44:17.232Z,101219.61
2019-06-27T05:49:36.390Z,101225.33
2019-06-27T05:54:55.539Z,101217.77
2019-06-27T06:00:27.760Z,101214.92
2019-06-27T06:05:36.155Z,101213.73
2019-06-27T06:10:55.368Z,101220.53
2019-06-27T06:16:14.438Z,101218.85
2019-06-27T06:21:33.605Z,101222.98
2019-06-27T06:26:52.756Z,101221.80
2019-06-27T06:32:11.871Z,101232.41
2019-06-27T06:37:31.032Z,101235.69
2019-06-27T06:42:50.227Z,101238.20
2019-06-27T06:48:09.451Z,101248.92
2019-06-27T06:53:28.561Z,101252.45
2019-06-27T06:58:47.926Z,101252.20
2019-06-27T07:04:07.076Z,101255.38
2019-06-27T07:09:26.395Z,101265.49
2019-06-27T07:14:45.615Z,101257.52
2019-06-27T07:20:05.969Z,101261.69
2019-06-27T07:25:25.125Z,101258.30
2019-06-27T07:30:44.368Z,101255.94
2019-06-27T07:36:03.491Z,101257.25
2019-06-27T07:41:22.686Z,101266.03
2019-06-27T07:46:41.881Z,101261.52
2019-06-27T07:52:01.043Z,101257.45
2019-06-27T07:57:20.176Z,101266.00
2019-06-27T08:02:39.319Z,101258.69
2019-06-27T08:07:58.523Z,101255.63
2019-06-27T08:13:17.659Z,101261.27
2019-06-27T08:18:36.810Z,101258.17
2019-06-27T08:23:55.967Z,101250.84
2019-06-27T08:29:15.120Z,101248.56
2019-06-27T08:34:34.504Z,101249.34
2019-06-27T08:39:53.626Z,101248.11
2019-06-27T08:45:13.797Z,101249.11
2019-06-27T08:50:32.913Z,101244.28
2019-06-27T08:55:52.092Z,101245.33
2019-06-27T09:01:11.292Z,101241.44
2019-06-27T09:06:30.830Z,101252.85
2019-06-27T09:11:50.001Z,101239.72
2019-06-27T09:17:09.175Z,101244.50
2019-06-27T09:22:28.367Z,101240.36
2019-06-27T09:27:47.832Z,101249.20
2019-06-27T09:33:07.003Z,101241.14
2019-06-27T09:38:26.170Z,101234.06
2019-06-27T09:43:45.382Z,101241.31
2019-06-27T09:49:04.947Z,101230.41
2019-06-27T09:54:24.097Z,101226.93
2019-06-27T09:59:43.246Z,101234.83
2019-06-27T10:05:02.448Z,101226.07
2019-06-27T10:10:21.589Z,101226.39
2019-06-27T10:15:40.751Z,101221.77
2019-06-27T10:20:59.938Z,101220.77
2019-06-27T10:26:19.064Z,101218.89
2019-06-27T10:31:38.177Z,101219.61
2019-06-27T10:36:57.353Z,101210.69
2019-06-27T10:42:17.166Z,101206.17
2019-06-27T10:47:36.326Z,101210.95
2019-06-27T10:52:55.473Z,101209.94
2019-06-27T10:58:14.552Z,101210.91
2019-06-27T11:03:33.925Z,101207.25
2019-06-27T11:08:53.088Z,101202.84
2019-06-27T11:14:12.602Z,101192.57
2019-06-27T11:19:31.795Z,101192.94
2019-06-27T11:24:50.989Z,101186.11
2019-06-27T11:30:10.284Z,101171.59
2019-06-27T11:35:29.595Z,101171.59
2019-06-27T11:40:48.755Z,101170.67
2019-06-27T11:46:08.983Z,101172.93
2019-06-27T11:51:28.547Z,101176.19
2019-06-27T11:56:47.731Z,101164.25
2019-06-27T12:02:07.072Z,101172.46
2019-06-27T12:07:26.221Z,101160.20
2019-06-27T12:12:45.372Z,101163.68
2019-06-27T12:18:04.820Z,101153.99
2019-06-27T12:23:24.555Z,101146.83
2019-06-27T12:28:43.724Z,101142.32
2019-06-27T12:34:07.333Z,101122.80
2019-06-27T12:39:23.796Z,101142.14
2019-06-27T12:44:42.941Z,101131.59
2019-06-27T12:50:03.231Z,101130.05
2019-06-27T12:55:22.717Z,101124.70
2019-06-27T13:00:41.877Z,101122.41
2019-06-27T13:06:01.377Z,101114.09
2019-06-27T13:11:20.543Z,101112.88
2019-06-27T13:16:39.830Z,101107.13
2019-06-27T13:21:59.029Z,101107.91
2019-06-27T13:27:18.571Z,101111.78
2019-06-27T13:32:37.788Z,101103.46
2019-06-27T13:37:57.940Z,101090.36
2019-06-27T13:43:17.157Z,101087.77
2019-06-27T13:48:36.314Z,101085.98
2019-06-27T13:53:55.437Z,101079.78
2019-06-27T13:59:14.903Z,101077.46
2019-06-27T14:04:34.360Z,101072.02
2019-06-27T14:09:57.110Z,101058.28
2019-06-27T14:15:14.644Z,101071.46
2019-06-27T14:20:33.816Z,101049.33
2019-06-27T14:25:52.983Z,101051.78
2019-06-27T14:31:12.138Z,101053.16
2019-06-27T14:36:31.722Z,101049.52
2019-06-27T14:41:50.836Z,101048.09
2019-06-27T14:47:09.987Z,101046.55
2019-06-27T14:52:29.149Z,101043.77
2019-06-27T14:57:48.305Z,101038.42
2019-06-27T15:03:07.447Z,101029.89
2019-06-27T15:08:26.569Z,101032.96
2019-06-27T15:13:45.730Z,101038.36
2019-06-27T15:19:04.877Z,101033.01
2019-06-27T15:24:24.034Z,101027.55
2019-06-27T15:29:43.187Z,101034.14
2019-06-27T15:35:02.406Z,101029.25
2019-06-27T15:40:21.746Z,101030.53
2019-06-27T15:45:40.847Z,101030.91
2019-06-27T15:50:59.997Z,101022.26
2019-06-27T15:56:19.234Z,101018.95
2019-06-27T16:01:38.528Z,101024.70
2019-06-27T16:06:57.666Z,101008.14
2019-06-27T16:12:16.838Z,101009.13
2019-06-27T16:17:36.005Z,100998.77
2019-06-27T16:22:55.127Z,101000.32
2019-06-27T16:28:14.391Z,101000.61
2019-06-27T16:33:33.543Z,100989.45
2019-06-27T16:38:52.674Z,100986.98
2019-06-27T16:44:11.795Z,100996.02
2019-06-27T16:49:31.272Z,100991.25
2019-06-27T16:54:50.788Z,100997.78
2019-06-27T17:00:10.144Z,100997.48
2019-06-27T17:05:29.342Z,100998.55
2019-06-27T17:10:48.505Z,100998.59
2019-06-27T17:16:07.653Z,100994.46
2019-06-27T17:21:26.807Z,100992.76
2019-06-27T17:26:45.961Z,100991.94
2019-06-27T17:32:06.520Z,100993.09
2019-06-27T17:37:25.819Z,100988.50
2019-06-27T17:42:44.997Z,100991.22
2019-06-27T17:48:04.119Z,100992.84
2019-06-27T17:53:23.261Z,100995.74
2019-06-27T17:58:42.392Z,100996.16
2019-06-27T18:04:01.597Z,101001.28
2019-06-27T18:09:20.730Z,101003.50
2019-06-27T18:14:39.958Z,100994.93
2019-06-27T18:19:59.124Z,100989.86
2019-06-27T18:25:18.310Z,100993.31
2019-06-27T18:30:37.429Z,100989.87
2019-06-27T18:35:56.562Z,100998.72
2019-06-27T18:41:15.856Z,100992.84
2019-06-27T18:46:35.068Z,100994.47
2019-06-27T18:51:54.139Z,100993.30
2019-06-27T18:57:13.350Z,101002.03
2019-06-27T19:02:32.533Z,101000.98
2019-06-27T19:07:51.778Z,101000.72
2019-06-27T19:13:10.854Z,100998.06
2019-06-27T19:18:43.207Z,100996.72
2019-06-27T19:24:15.999Z,101000.52
2019-06-27T19:29:35.149Z,100998.22
2019-06-27T19:34:54.295Z,100995.97
2019-06-27T19:40:13.945Z,101006.48
2019-06-27T19:45:33.076Z,101010.72
2019-06-27T19:50:52.231Z,101020.56
2019-06-27T19:56:11.390Z,101031.83
2019-06-27T20:01:30.545Z,101034.77
2019-06-27T20:06:49.675Z,101043.31
2019-06-27T20:12:08.821Z,101055.30
2019-06-27T20:17:28.087Z,101064.80
2019-06-27T20:22:48.926Z,101063.47
2019-06-27T20:28:08.042Z,101067.39
2019-06-27T20:33:34.005Z,101076.92
2019-06-27T20:38:53.151Z,101078.78
2019-06-27T20:44:12.625Z,101079.89
2019-06-27T20:49:31.764Z,101085.05
2019-06-27T20:54:50.974Z,101086.49
2019-06-27T21:00:10.466Z,101088.37
2019-06-27T21:05:29.560Z,101083.91
2019-06-27T21:10:48.695Z,101085.53
2019-06-27T21:16:07.828Z,101086.98
2019-06-27T21:21:26.976Z,101087.28
2019-06-27T21:26:46.109Z,101089.11
2019-06-27T21:32:05.272Z,101089.77
2019-06-27T21:37:24.408Z,101091.78
2019-06-27T21:42:43.560Z,101085.28
2019-06-27T21:48:02.748Z,101100.66
2019-06-27T21:53:21.883Z,101092.48
2019-06-27T21:58:41.042Z,101084.94
2019-06-27T22:04:00.186Z,101083.28
2019-06-27T22:09:24.859Z,101081.58
2019-06-27T22:14:40.215Z,101084.42
2019-06-27T22:20:14.064Z,101087.28
2019-06-27T22:25:20.218Z,101090.20
2019-06-27T22:30:39.366Z,101084.70
2019-06-27T22:35:58.502Z,101086.17
2019-06-27T22:41:35.589Z,101088.48
2019-06-27T22:47:12.866Z,101083.95
2019-06-27T22:52:36.765Z,101086.12
2019-06-27T22:57:55.907Z,101079.52
2019-06-27T23:03:15.054Z,101084.72
2019-06-27T23:08:34.188Z,101083.88
2019-06-27T23:13:53.334Z,101079.42
2019-06-27T23:19:12.474Z,101085.97
2019-06-27T23:24:31.936Z,101084.13
2019-06-27T23:29:51.017Z,101075.53
2019-06-27T23:35:10.262Z,101073.64
2019-06-27T23:40:29.335Z,101075.74
2019-06-27T23:45:48.552Z,101080.30
2019-06-27T23:51:07.639Z,101076.95
2019-06-27T23:56:26.722Z,101070.48
